createdAt,value
2022-10-19T00:00:32.369Z,5.62
2022-10-19T00:02:58.740Z,5.65
2022-10-19T00:05:25.128Z,5.62
2022-10-19T00:07:51.557Z,5.60
2022-10-19T00:10:18.126Z,5.58
2022-10-19T00:12:44.562Z,5.56
2022-10-19T00:15:11.004Z,5.56
2022-10-19T00:17:37.379Z,5.53
2022-10-19T00:20:04.470Z,5.51
2022-10-19T00:22:31.084Z,5.44
2022-10-19T00:24:57.896Z,5.45
2022-10-19T00:27:24.272Z,5.44
2022-10-19T00:29:50.651Z,5.38
2022-10-19T00:32:17.050Z,5.33
2022-10-19T00:34:43.460Z,5.29
2022-10-19T00:37:09.852Z,5.29
2022-10-19T00:39:36.397Z,5.26
2022-10-19T00:42:02.771Z,5.24
2022-10-19T00:44:29.177Z,5.21
2022-10-19T00:47:01.737Z,5.23
2022-10-19T00:49:38.400Z,5.21
2022-10-19T00:52:10.428Z,5.16
2022-10-19T00:54:39.567Z,5.07
2022-10-19T00:57:07.096Z,5.05
2022-10-19T00:59:34.709Z,5.01
2022-10-19T01:02:04.249Z,4.97
2022-10-19T01:04:33.813Z,4.96
2022-10-19T01:07:02.185Z,4.91
2022-10-19T01:09:28.563Z,4.94
2022-10-19T01:12:10.516Z,4.91
2022-10-19T01:14:53.603Z,4.89
2022-10-19T01:17:51.256Z,4.85
2022-10-19T01:21:00.636Z,4.85
2022-10-19T01:24:18.211Z,4.81
2022-10-19T01:27:08.588Z,4.81
2022-10-19T01:30:12.197Z,4.81
2022-10-19T01:32:52.760Z,4.76
2022-10-19T01:35:42.377Z,4.72
2022-10-19T01:38:27.363Z,4.72
2022-10-19T01:40:59.983Z,4.69
2022-10-19T01:43:46.045Z,4.63
2022-10-19T01:46:28.750Z,4.54
2022-10-19T01:49:02.277Z,4.52
2022-10-19T01:51:34.114Z,4.45
2022-10-19T01:54:04.516Z,4.43
2022-10-19T01:56:33.931Z,4.38
2022-10-19T01:59:04.763Z,4.35
2022-10-19T02:01:35.336Z,4.33
2022-10-19T02:04:03.290Z,4.33
2022-10-19T02:06:29.738Z,4.30
2022-10-19T02:08:56.185Z,4.26
2022-10-19T02:11:23.800Z,4.27
2022-10-19T02:13:56.514Z,4.25
2022-10-19T02:17:03.280Z,4.23
2022-10-19T02:19:30.049Z,4.18
2022-10-19T02:21:56.911Z,4.13
2022-10-19T02:24:23.363Z,4.11
2022-10-19T02:26:50.150Z,4.11
2022-10-19T02:29:16.935Z,4.03
2022-10-19T02:31:43.708Z,3.98
2022-10-19T02:34:10.424Z,3.98
2022-10-19T02:36:37.012Z,3.92
2022-10-19T02:39:04.026Z,3.92
2022-10-19T02:41:42.567Z,3.93
2022-10-19T02:44:23.658Z,3.93
2022-10-19T02:46:56.879Z,3.92
2022-10-19T02:49:24.253Z,3.91
2022-10-19T02:52:00.977Z,3.86
2022-10-19T02:54:28.217Z,3.82
2022-10-19T02:56:55.346Z,3.82
2022-10-19T02:59:21.853Z,3.82
2022-10-19T03:01:48.300Z,3.81
2022-10-19T03:04:15.040Z,3.76
2022-10-19T03:06:41.436Z,3.76
2022-10-19T03:09:08.212Z,3.73
2022-10-19T03:11:34.586Z,3.71
2022-10-19T03:14:00.977Z,3.65
2022-10-19T03:16:27.351Z,3.66
2022-10-19T03:18:54.734Z,3.65
2022-10-19T03:21:21.197Z,3.62
2022-10-19T03:23:47.576Z,3.59
2022-10-19T03:26:16.543Z,3.58
2022-10-19T03:28:43.020Z,3.57
2022-10-19T03:31:09.513Z,3.58
2022-10-19T03:33:35.888Z,3.55
2022-10-19T03:36:22.690Z,3.52
2022-10-19T03:38:53.632Z,3.49
2022-10-19T03:41:25.075Z,3.44
2022-10-19T03:43:51.563Z,3.39
2022-10-19T03:46:18.555Z,3.35
2022-10-19T03:48:45.563Z,3.32
2022-10-19T03:51:16.854Z,3.30
2022-10-19T03:53:43.756Z,3.25
2022-10-19T03:56:16.843Z,3.27
2022-10-19T03:58:45.050Z,3.27
2022-10-19T04:01:17.830Z,3.26
2022-10-19T04:03:44.330Z,3.25
2022-10-19T04:06:19.659Z,3.22
2022-10-19T04:08:49.882Z,3.17
2022-10-19T04:11:18.004Z,3.20
2022-10-19T04:13:44.446Z,3.21
2022-10-19T04:16:13.567Z,3.19
2022-10-19T04:18:39.923Z,3.19
2022-10-19T04:21:06.775Z,3.18
2022-10-19T04:23:35.765Z,3.16
2022-10-19T04:26:05.376Z,3.15
2022-10-19T04:28:32.534Z,3.13
2022-10-19T04:31:02.277Z,3.13
2022-10-19T04:33:28.674Z,3.12
2022-10-19T04:35:59.820Z,3.07
2022-10-19T04:38:26.760Z,3.08
2022-10-19T04:40:53.212Z,3.08
2022-10-19T04:43:19.728Z,3.08
2022-10-19T04:45:46.108Z,3.06
2022-10-19T04:48:15.033Z,3.04
2022-10-19T04:50:41.730Z,3.01
2022-10-19T04:53:08.200Z,3.00
2022-10-19T04:55:34.609Z,2.99
2022-10-19T04:58:00.988Z,2.89
2022-10-19T05:00:27.458Z,2.87
2022-10-19T05:02:53.828Z,2.80
2022-10-19T05:05:20.237Z,2.79
2022-10-19T05:07:48.804Z,2.83
2022-10-19T05:10:15.331Z,2.83
2022-10-19T05:12:41.694Z,2.82
2022-10-19T05:15:08.747Z,2.82
2022-10-19T05:17:35.471Z,2.81
2022-10-19T05:20:02.116Z,2.80
2022-10-19T05:22:28.502Z,2.80
2022-10-19T05:24:58.053Z,2.81
2022-10-19T05:27:24.767Z,2.79
2022-10-19T05:29:51.241Z,2.80
2022-10-19T05:32:17.696Z,2.75
2022-10-19T05:34:44.073Z,2.75
2022-10-19T05:37:10.529Z,2.74
2022-10-19T05:39:36.936Z,2.74
2022-10-19T05:42:03.648Z,2.71
2022-10-19T05:44:30.209Z,2.64
2022-10-19T05:46:56.663Z,2.61
2022-10-19T05:49:23.110Z,2.56
2022-10-19T05:51:50.209Z,2.54
2022-10-19T05:54:17.052Z,2.49
2022-10-19T05:56:43.842Z,2.49
2022-10-19T05:59:14.213Z,2.50
2022-10-19T06:01:40.699Z,2.52
2022-10-19T06:04:07.311Z,2.53
2022-10-19T06:06:34.557Z,2.55
2022-10-19T06:09:00.957Z,2.55
2022-10-19T06:11:29.747Z,2.54
2022-10-19T06:13:59.059Z,2.54
2022-10-19T06:16:26.969Z,2.55
2022-10-19T06:18:54.343Z,2.57
2022-10-19T06:21:24.537Z,2.58
2022-10-19T06:23:56.156Z,2.58
2022-10-19T06:26:23.511Z,2.56
2022-10-19T06:28:51.116Z,2.53
2022-10-19T06:31:17.845Z,2.55
2022-10-19T06:33:47.283Z,2.60
2022-10-19T06:36:18.803Z,2.64
2022-10-19T06:38:45.566Z,2.66
2022-10-19T06:41:12.127Z,2.69
2022-10-19T06:43:38.862Z,2.70
2022-10-19T06:46:07.291Z,2.73
2022-10-19T06:48:33.901Z,2.75
2022-10-19T06:51:06.203Z,2.76
2022-10-19T06:53:34.560Z,2.80
2022-10-19T06:56:03.240Z,2.84
2022-10-19T06:58:29.790Z,2.90
2022-10-19T07:01:00.975Z,2.98
2022-10-19T07:03:28.884Z,3.04
2022-10-19T07:06:00.244Z,3.09
2022-10-19T07:08:28.339Z,3.17
2022-10-19T07:10:57.077Z,3.27
2022-10-19T07:13:24.006Z,3.39
2022-10-19T07:15:57.708Z,3.56
2022-10-19T07:18:24.480Z,3.66
2022-10-19T07:20:58.593Z,3.72
2022-10-19T07:23:26.804Z,3.85
2022-10-19T07:25:55.191Z,3.97
2022-10-19T07:28:22.177Z,4.09
2022-10-19T07:30:48.592Z,4.24
2022-10-19T07:33:15.077Z,4.39
2022-10-19T07:35:41.479Z,4.52
2022-10-19T07:38:08.495Z,4.64
2022-10-19T07:40:35.637Z,4.74
2022-10-19T07:43:02.613Z,4.89
2022-10-19T07:45:29.922Z,5.02
2022-10-19T07:47:56.348Z,5.17
2022-10-19T07:50:27.260Z,5.30
2022-10-19T07:52:54.215Z,5.45
2022-10-19T07:55:20.643Z,5.63
2022-10-19T07:57:48.554Z,5.82
2022-10-19T08:00:17.052Z,5.98
2022-10-19T08:02:59.799Z,6.11
2022-10-19T08:05:33.163Z,6.24
2022-10-19T08:07:59.618Z,6.38
2022-10-19T08:10:26.068Z,6.51
2022-10-19T08:12:52.440Z,6.64
2022-10-19T08:15:18.866Z,6.78
2022-10-19T08:17:45.277Z,6.86
2022-10-19T08:20:11.735Z,6.96
2022-10-19T08:22:38.134Z,7.10
2022-10-19T08:25:04.901Z,7.24
2022-10-19T08:27:31.385Z,7.39
2022-10-19T08:29:57.795Z,7.54
2022-10-19T08:32:24.372Z,7.69
2022-10-19T08:34:50.762Z,7.83
2022-10-19T08:37:26.281Z,7.94
2022-10-19T08:40:04.264Z,8.10
2022-10-19T08:43:12.577Z,8.26
2022-10-19T08:45:42.647Z,8.38
2022-10-19T08:48:22.566Z,8.48
2022-10-19T08:50:49.490Z,8.62
2022-10-19T08:53:22.364Z,8.74
2022-10-19T08:56:06.061Z,8.87
2022-10-19T08:58:57.756Z,8.98
2022-10-19T09:01:37.812Z,9.09
2022-10-19T09:04:19.471Z,9.20
2022-10-19T09:07:00.207Z,9.30
2022-10-19T09:09:29.882Z,9.41
2022-10-19T09:12:02.641Z,9.52
2022-10-19T09:14:38.484Z,9.61
2022-10-19T09:17:12.641Z,9.73
2022-10-19T09:19:39.019Z,9.82
2022-10-19T09:22:19.057Z,9.92
2022-10-19T09:24:54.026Z,9.99
2022-10-19T09:27:26.404Z,10.10
2022-10-19T09:29:58.361Z,10.20
2022-10-19T09:32:31.346Z,10.29
2022-10-19T09:35:07.645Z,10.36
2022-10-19T09:37:44.104Z,10.45
2022-10-19T09:40:26.473Z,10.54
2022-10-19T09:42:57.404Z,10.63
2022-10-19T09:45:48.771Z,10.73
2022-10-19T09:48:41.632Z,10.81
2022-10-19T09:51:13.255Z,10.87
2022-10-19T09:53:44.973Z,10.92
2022-10-19T09:56:19.253Z,10.95
2022-10-19T09:58:51.641Z,10.94
2022-10-19T10:01:43.017Z,10.97
2022-10-19T10:04:18.061Z,10.98
2022-10-19T10:06:47.887Z,10.99
2022-10-19T10:09:17.365Z,11.05
2022-10-19T10:11:47.869Z,11.07
2022-10-19T10:14:30.282Z,11.12
2022-10-19T10:17:01.324Z,11.14
2022-10-19T10:19:30.396Z,11.22
2022-10-19T10:21:58.761Z,11.26
2022-10-19T10:24:28.210Z,11.26
2022-10-19T10:26:57.214Z,11.28
2022-10-19T10:29:32.693Z,11.30
2022-10-19T10:32:08.840Z,11.31
2022-10-19T10:34:58.543Z,11.27
2022-10-19T10:37:30.489Z,11.28
2022-10-19T10:40:01.808Z,11.37
2022-10-19T10:42:44.651Z,11.43
2022-10-19T10:45:29.085Z,11.49
2022-10-19T10:47:56.990Z,11.54
2022-10-19T10:50:34.523Z,11.61
2022-10-19T10:53:03.617Z,11.65
2022-10-19T10:55:31.464Z,11.66
2022-10-19T10:58:19.873Z,11.70
2022-10-19T11:00:50.312Z,11.72
2022-10-19T11:03:24.896Z,11.78
2022-10-19T11:06:00.295Z,11.81
2022-10-19T11:08:56.770Z,11.85
2022-10-19T11:11:39.467Z,11.86
2022-10-19T11:14:30.688Z,11.93
2022-10-19T11:17:02.786Z,11.96
2022-10-19T11:19:40.440Z,12.00
2022-10-19T11:22:22.342Z,12.03
2022-10-19T11:25:22.347Z,12.09
2022-10-19T11:28:15.752Z,12.16
2022-10-19T11:30:50.768Z,12.25
2022-10-19T11:33:27.735Z,12.30
2022-10-19T11:35:59.103Z,12.34
2022-10-19T11:38:31.322Z,12.38
2022-10-19T11:41:17.930Z,12.42
2022-10-19T11:43:58.560Z,12.46
2022-10-19T11:46:38.270Z,12.49
2022-10-19T11:49:25.719Z,12.51
2022-10-19T11:52:10.922Z,12.53
2022-10-19T11:54:58.713Z,12.57
2022-10-19T11:57:31.320Z,12.57
2022-10-19T12:00:15.213Z,12.61
2022-10-19T12:03:41.163Z,12.61
2022-10-19T12:06:28.660Z,12.65
2022-10-19T12:09:04.733Z,12.68
2022-10-19T12:12:08.743Z,12.71
2022-10-19T12:14:39.387Z,12.69
2022-10-19T12:19:47.708Z,12.67
2022-10-19T12:22:19.174Z,12.68
2022-10-19T12:24:46.405Z,12.68
2022-10-19T12:27:14.967Z,12.73
2022-10-19T12:29:45.612Z,12.79
2022-10-19T12:32:16.912Z,12.86
2022-10-19T12:35:00.584Z,12.86
2022-10-19T12:37:48.372Z,12.85
2022-10-19T12:40:32.245Z,12.86
2022-10-19T12:43:13.871Z,12.86
2022-10-19T12:46:05.394Z,12.85
2022-10-19T12:48:31.805Z,12.86
2022-10-19T12:51:01.937Z,12.87
2022-10-19T12:53:36.109Z,12.88
2022-10-19T12:56:07.432Z,12.89
2022-10-19T12:58:52.902Z,12.91
2022-10-19T13:01:20.928Z,12.95
2022-10-19T13:03:49.844Z,12.96
2022-10-19T13:06:50.141Z,12.96
2022-10-19T13:09:23.159Z,12.97
2022-10-19T13:12:21.699Z,12.98
2022-10-19T13:14:51.564Z,13.01
2022-10-19T13:17:50.952Z,13.06
2022-10-19T13:20:17.295Z,13.05
2022-10-19T13:23:10.990Z,13.03
2022-10-19T13:25:38.813Z,13.05
2022-10-19T13:28:09.231Z,13.04
2022-10-19T13:30:35.625Z,13.05
2022-10-19T13:33:32.723Z,13.08
2022-10-19T13:35:59.054Z,13.08
2022-10-19T13:41:08.811Z,13.08
2022-10-19T13:43:40.233Z,13.10
2022-10-19T13:46:16.625Z,13.12
2022-10-19T13:48:42.936Z,13.15
2022-10-19T13:51:21.507Z,13.17
2022-10-19T13:53:59.903Z,13.15
2022-10-19T13:56:32.556Z,13.14
2022-10-19T13:59:20.754Z,13.16
2022-10-19T14:01:53.137Z,13.15
2022-10-19T14:04:36.262Z,13.16
2022-10-19T14:07:15.317Z,13.16
2022-10-19T14:10:08.227Z,13.15
2022-10-19T14:12:40.215Z,13.15
2022-10-19T14:15:18.565Z,13.15
2022-10-19T14:17:45.125Z,13.13
2022-10-19T14:20:44.276Z,13.13
2022-10-19T14:23:25.908Z,13.13
2022-10-19T14:25:56.998Z,13.12
2022-10-19T14:28:24.796Z,13.11
2022-10-19T14:31:01.579Z,13.11
2022-10-19T14:33:51.123Z,13.11
2022-10-19T14:36:23.114Z,13.12
2022-10-19T14:38:54.445Z,13.12
2022-10-19T14:44:34.588Z,13.13
2022-10-19T14:47:01.968Z,13.12
2022-10-19T14:49:28.540Z,13.10
2022-10-19T14:52:00.139Z,13.12
2022-10-19T14:54:36.386Z,13.10
2022-10-19T14:57:19.988Z,13.08
2022-10-19T14:59:50.471Z,13.08
2022-10-19T15:02:16.809Z,13.09
2022-10-19T15:04:43.621Z,13.09
2022-10-19T15:07:20.621Z,13.09
2022-10-19T15:10:02.381Z,13.07
2022-10-19T15:12:35.371Z,13.06
2022-10-19T15:15:07.856Z,13.05
2022-10-19T15:17:37.800Z,13.05
2022-10-19T15:20:16.672Z,13.03
2022-10-19T15:22:43.055Z,13.01
2022-10-19T15:25:09.391Z,12.97
2022-10-19T15:27:35.778Z,12.92
2022-10-19T15:30:06.880Z,12.89
2022-10-19T15:32:36.719Z,12.84
2022-10-19T15:35:18.243Z,12.79
2022-10-19T15:37:47.558Z,12.73
2022-10-19T15:40:22.787Z,12.69
2022-10-19T15:42:49.295Z,12.62
2022-10-19T15:45:37.854Z,12.58
2022-10-19T15:48:10.250Z,12.53
2022-10-19T15:50:42.344Z,12.48
2022-10-19T15:53:08.818Z,12.42
2022-10-19T15:55:35.423Z,12.37
2022-10-19T15:58:01.907Z,12.32
2022-10-19T16:00:29.473Z,12.28
2022-10-19T16:02:55.870Z,12.22
2022-10-19T16:05:22.315Z,12.17
2022-10-19T16:07:48.991Z,12.15
2022-10-19T16:10:26.773Z,12.10
2022-10-19T16:12:53.427Z,12.05
2022-10-19T16:15:22.482Z,11.99
2022-10-19T16:18:00.159Z,11.96
2022-10-19T16:20:28.413Z,11.90
2022-10-19T16:22:55.393Z,11.84
2022-10-19T16:25:21.925Z,11.78
2022-10-19T16:27:48.498Z,11.74
2022-10-19T16:30:14.930Z,11.69
2022-10-19T16:35:10.002Z,11.58
2022-10-19T16:37:37.081Z,11.55
2022-10-19T16:40:05.151Z,11.50
2022-10-19T16:42:32.076Z,11.47
2022-10-19T16:44:58.712Z,11.42
2022-10-19T16:47:25.437Z,11.39
2022-10-19T16:50:02.680Z,11.35
2022-10-19T16:52:31.748Z,11.29
2022-10-19T16:54:59.126Z,11.25
2022-10-19T16:57:25.762Z,11.22
2022-10-19T17:02:21.133Z,11.15
2022-10-19T17:04:47.524Z,11.12
2022-10-19T17:07:14.836Z,11.08
2022-10-19T17:09:42.532Z,11.03
2022-10-19T17:12:10.123Z,11.01
2022-10-19T17:14:38.894Z,10.97
2022-10-19T17:17:05.274Z,10.94
2022-10-19T17:19:32.172Z,10.90
2022-10-19T17:21:59.254Z,10.87
2022-10-19T17:24:25.869Z,10.84
2022-10-19T17:26:53.006Z,10.81
2022-10-19T17:29:20.688Z,10.79
2022-10-19T17:31:47.547Z,10.74
2022-10-19T17:34:14.340Z,10.72
2022-10-19T17:36:44.470Z,10.67
2022-10-19T17:39:15.017Z,10.64
2022-10-19T17:41:41.415Z,10.63
2022-10-19T17:44:07.882Z,10.61
2022-10-19T17:46:35.415Z,10.57
2022-10-19T17:49:02.263Z,10.56
2022-10-19T17:51:31.536Z,10.55
2022-10-19T17:54:00.725Z,10.52
2022-10-19T17:56:28.626Z,10.49
2022-10-19T17:58:57.010Z,10.46
2022-10-19T18:01:24.577Z,10.44
2022-10-19T18:03:51.052Z,10.42
2022-10-19T18:06:20.406Z,10.40
2022-10-19T18:08:49.215Z,10.39
2022-10-19T18:11:44.939Z,10.39
2022-10-19T18:14:12.701Z,10.36
2022-10-19T18:16:45.726Z,10.33
2022-10-19T18:19:14.684Z,10.30
2022-10-19T18:21:44.184Z,10.27
2022-10-19T18:24:16.413Z,10.25
2022-10-19T18:26:43.419Z,10.24
2022-10-19T18:29:13.302Z,10.22
2022-10-19T18:31:40.703Z,10.19
2022-10-19T18:34:08.773Z,10.16
2022-10-19T18:36:35.171Z,10.12
2022-10-19T18:39:05.033Z,10.11
2022-10-19T18:41:31.633Z,10.09
2022-10-19T18:44:04.849Z,10.08
2022-10-19T18:46:36.442Z,10.03
2022-10-19T18:49:06.663Z,9.98
2022-10-19T18:51:33.043Z,9.95
2022-10-19T18:53:59.609Z,9.92
2022-10-19T18:56:26.604Z,9.90
2022-10-19T18:58:53.033Z,9.89
2022-10-19T19:01:24.574Z,9.84
2022-10-19T19:04:00.420Z,9.82
2022-10-19T19:06:29.333Z,9.80
2022-10-19T19:08:57.676Z,9.76
2022-10-19T19:11:26.486Z,9.70
2022-10-19T19:13:55.750Z,9.67
2022-10-19T19:16:22.967Z,9.66
2022-10-19T19:18:50.091Z,9.61
2022-10-19T19:21:17.949Z,9.60
2022-10-19T19:23:44.464Z,9.57
2022-10-19T19:26:12.735Z,9.54
2022-10-19T19:28:41.549Z,9.53
2022-10-19T19:31:10.380Z,9.49
2022-10-19T19:33:37.290Z,9.46
2022-10-19T19:36:08.487Z,9.44
2022-10-19T19:38:35.970Z,9.42
2022-10-19T19:41:06.931Z,9.39
2022-10-19T19:43:35.223Z,9.35
2022-10-19T19:46:06.411Z,9.33
2022-10-19T19:48:36.494Z,9.31
2022-10-19T19:51:03.058Z,9.28
2022-10-19T19:53:29.442Z,9.27
2022-10-19T19:55:55.946Z,9.24
2022-10-19T19:58:22.311Z,9.21
2022-10-19T20:00:48.769Z,9.17
2022-10-19T20:03:15.755Z,9.15
2022-10-19T20:05:42.567Z,9.14
2022-10-19T20:08:09.334Z,9.10
2022-10-19T20:10:40.446Z,9.06
2022-10-19T20:13:06.938Z,9.06
2022-10-19T20:15:33.743Z,9.05
2022-10-19T20:18:00.159Z,9.02
2022-10-19T20:20:26.590Z,9.00
2022-10-19T20:22:52.987Z,8.96
2022-10-19T20:25:19.425Z,8.96
2022-10-19T20:27:45.890Z,8.93
2022-10-19T20:30:12.369Z,8.89
2022-10-19T20:32:39.012Z,8.86
2022-10-19T20:35:07.282Z,8.83
2022-10-19T20:37:33.745Z,8.79
2022-10-19T20:40:01.552Z,8.77
2022-10-19T20:42:29.724Z,8.75
2022-10-19T20:44:56.325Z,8.73
2022-10-19T20:47:22.731Z,8.69
2022-10-19T20:49:49.226Z,8.67
2022-10-19T20:52:15.703Z,8.66
2022-10-19T20:54:42.075Z,8.63
2022-10-19T20:57:08.484Z,8.61
2022-10-19T20:59:34.980Z,8.59
2022-10-19T21:02:01.404Z,8.57
2022-10-19T21:04:27.907Z,8.56
2022-10-19T21:06:54.469Z,8.54
2022-10-19T21:09:22.811Z,8.52
2022-10-19T21:11:51.215Z,8.49
2022-10-19T21:14:23.749Z,8.47
2022-10-19T21:16:53.509Z,8.46
2022-10-19T21:19:22.741Z,8.43
2022-10-19T21:21:58.441Z,8.40
2022-10-19T21:24:27.616Z,8.38
2022-10-19T21:26:54.320Z,8.38
2022-10-19T21:29:21.515Z,8.37
2022-10-19T21:31:49.655Z,8.40
2022-10-19T21:34:27.605Z,8.37
2022-10-19T21:36:54.586Z,8.36
2022-10-19T21:39:21.641Z,8.37
2022-10-19T21:41:48.743Z,8.31
2022-10-19T21:44:16.182Z,8.24
2022-10-19T21:46:43.520Z,8.21
2022-10-19T21:49:13.708Z,8.18
2022-10-19T21:51:46.289Z,8.14
2022-10-19T21:54:15.998Z,8.10
2022-10-19T21:56:43.394Z,8.08
2022-10-19T21:59:09.849Z,8.05
2022-10-19T22:01:40.128Z,8.04
2022-10-19T22:04:11.813Z,8.04
2022-10-19T22:06:38.304Z,8.02
2022-10-19T22:09:06.967Z,7.98
2022-10-19T22:11:33.546Z,7.97
2022-10-19T22:14:02.262Z,7.96
2022-10-19T22:16:30.352Z,7.94
2022-10-19T22:18:57.220Z,7.94
2022-10-19T22:21:26.355Z,7.93
2022-10-19T22:23:55.719Z,7.90
2022-10-19T22:26:27.833Z,7.90
2022-10-19T22:28:58.842Z,7.86
2022-10-19T22:31:27.485Z,7.83
2022-10-19T22:33:54.093Z,7.80
2022-10-19T22:36:20.566Z,7.78
2022-10-19T22:38:46.938Z,7.75
2022-10-19T22:42:06.159Z,7.74
2022-10-19T22:44:32.837Z,7.72
2022-10-19T22:46:59.318Z,7.70
2022-10-19T22:49:25.700Z,7.69
2022-10-19T22:51:52.078Z,7.66
2022-10-19T22:54:18.490Z,7.64
2022-10-19T22:56:44.859Z,7.63
2022-10-19T22:59:11.534Z,7.61
2022-10-19T23:01:38.064Z,7.61
2022-10-19T23:04:04.587Z,7.61
2022-10-19T23:06:31.008Z,7.60
2022-10-19T23:08:57.534Z,7.59
2022-10-19T23:11:24.026Z,7.58
2022-10-19T23:13:50.536Z,7.58
2022-10-19T23:16:17.143Z,7.56
2022-10-19T23:18:43.556Z,7.55
2022-10-19T23:21:13.116Z,7.55
2022-10-19T23:23:40.371Z,7.53
2022-10-19T23:26:13.197Z,7.53
2022-10-19T23:28:41.815Z,7.52
2022-10-19T23:31:16.910Z,7.51
2022-10-19T23:33:44.110Z,7.49
2022-10-19T23:36:14.944Z,7.47
2022-10-19T23:38:43.403Z,7.45
2022-10-19T23:41:10.916Z,7.45
2022-10-19T23:43:37.765Z,7.43
2022-10-19T23:46:04.218Z,7.42
2022-10-19T23:48:30.655Z,7.41
2022-10-19T23:51:01.570Z,7.39
2022-10-19T23:53:29.981Z,7.36
2022-10-19T23:56:08.796Z,7.35
2022-10-19T23:58:35.219Z,7.34
